Boulder City, Nevada
Current Conditions -  °F | °C
As of 6:35 AM on Thursday 29 Jan 2015 (Local Time) from KBVU Reporting Station
Clear Clear  
Wind Chill: 57°   Ceiling: Unl
Heat Index: 57°   Visibility: 10mi
Dew Point: 39°   Wind: 8mph
Humidity: 51%   Direction: 20°NNE
Pressure: 30.17"   Gusts: NA
Location:  35.98°N, 114.83°W
Report Text: KBVU 291435Z AUTO 02007KT 10SM CLR 14/04 A3017 RMK AO2
Loading
Personal Weather Stations






























Interactive Weather Map New forecast layout! Learn more

10-Day Weather Forecast

Advertisements
Track Severe Weather on mobile